AYN7051 UAAA-UACC
Flight info
| Callsign | AYN7051 |
|---|---|
| Flight time | N/A |
| Altitude | 36000 |
| Route | ETED1B ETEDA W333 BANOS DCT BEDK1K |
| Aircraft | A20N/M-SDE2E3FGHIRWXY/LB1 |
Departure
| Time | 2026-05-07 02:10 |
|---|---|
| Airport | Almaty International Airport (UAAA) |
Arrival
| Time | N/A |
|---|---|
| Airport | Nursultan Nazarbayev International Airport (UACC) |
| Time | Latitude | Longitude | Altitude | Speed | Heading |
|---|---|---|---|---|---|
| 2026-05-07 01:55 | 43.34853 | 77.01953 | 2223 ft | 0 kts | 184° |
| 2026-05-07 02:02 | 43.34848 | 77.01952 | 2225 ft | 1 kts | 184° |
| 2026-05-07 02:02 | 43.34838 | 77.01952 | 2225 ft | 0 kts | 184° |
| 2026-05-07 02:03 | 43.34834 | 77.01951 | 2225 ft | 0 kts | 185° |
| 2026-05-07 02:03 | 43.34829 | 77.01950 | 2225 ft | 0 kts | 188° |
| 2026-05-07 02:03 | 43.34814 | 77.01942 | 2225 ft | 2 kts | 208° |
| 2026-05-07 02:03 | 43.34803 | 77.01928 | 2226 ft | 2 kts | 236° |
| 2026-05-07 02:04 | 43.34802 | 77.01914 | 2226 ft | 2 kts | 278° |
| 2026-05-07 02:04 | 43.34805 | 77.01880 | 2226 ft | 4 kts | 276° |
| 2026-05-07 02:04 | 43.34808 | 77.01838 | 2225 ft | 5 kts | 275° |
| 2026-05-07 02:04 | 43.34809 | 77.01827 | 2225 ft | 0 kts | 275° |
| 2026-05-07 02:06 | 43.34809 | 77.01823 | 2226 ft | 1 kts | 275° |
| 2026-05-07 02:06 | 43.34811 | 77.01778 | 2226 ft | 7 kts | 273° |
| 2026-05-07 02:06 | 43.34814 | 77.01698 | 2225 ft | 9 kts | 272° |
| 2026-05-07 02:06 | 43.34816 | 77.01614 | 2225 ft | 10 kts | 271° |
| 2026-05-07 02:07 | 43.34812 | 77.01479 | 2224 ft | 11 kts | 255° |
| 2026-05-07 02:07 | 43.34728 | 77.01408 | 2226 ft | 9 kts | 153° |
| 2026-05-07 02:07 | 43.34671 | 77.01446 | 2227 ft | 8 kts | 156° |
| 2026-05-07 02:08 | 43.34617 | 77.01466 | 2229 ft | 7 kts | 173° |
| 2026-05-07 02:08 | 43.34573 | 77.01473 | 2231 ft | 5 kts | 166° |
| 2026-05-07 02:08 | 43.34523 | 77.01502 | 2232 ft | 8 kts | 156° |
| 2026-05-07 02:08 | 43.34472 | 77.01533 | 2233 ft | 8 kts | 154° |
| 2026-05-07 02:09 | 43.34418 | 77.01569 | 2234 ft | 8 kts | 155° |
| 2026-05-07 02:09 | 43.34361 | 77.01606 | 2234 ft | 9 kts | 155° |
| 2026-05-07 02:09 | 43.34235 | 77.01685 | 2236 ft | 25 kts | 156° |
| 2026-05-07 02:09 | 43.34184 | 77.01864 | 2237 ft | 26 kts | 61° |
| 2026-05-07 02:10 | 43.34415 | 77.02335 | 2236 ft | 96 kts | 56° |
| 2026-05-07 02:10 | 43.34912 | 77.03341 | 2252 ft | 154 kts | 56° |
| 2026-05-07 02:10 | 43.35508 | 77.04547 | 2811 ft | 154 kts | 56° |
| 2026-05-07 02:10 | 43.36117 | 77.05776 | 3440 ft | 158 kts | 57° |
| 2026-05-07 02:11 | 43.36732 | 77.07000 | 4063 ft | 160 kts | 56° |
| 2026-05-07 02:11 | 43.37405 | 77.08296 | 4489 ft | 174 kts | 55° |
| 2026-05-07 02:11 | 43.38397 | 77.10193 | 5044 ft | 196 kts | 55° |
| 2026-05-07 02:11 | 43.38940 | 77.11234 | 5350 ft | 208 kts | 55° |
| 2026-05-07 02:12 | 43.40016 | 77.13300 | 5812 ft | 235 kts | 56° |
| 2026-05-07 02:12 | 43.40659 | 77.14535 | 6118 ft | 247 kts | 56° |
| 2026-05-07 02:12 | 43.41860 | 77.16344 | 6604 ft | 267 kts | 34° |
| 2026-05-07 02:12 | 43.43623 | 77.17236 | 7211 ft | 282 kts | 6° |
| 2026-05-07 02:13 | 43.45567 | 77.16867 | 8005 ft | 288 kts | 337° |
| 2026-05-07 02:13 | 43.47344 | 77.15658 | 8820 ft | 291 kts | 332° |
| 2026-05-07 02:13 | 43.49139 | 77.14387 | 9598 ft | 295 kts | 332° |
| 2026-05-07 02:13 | 43.50968 | 77.13092 | 10479 ft | 298 kts | 332° |
| 2026-05-07 02:14 | 43.52829 | 77.11774 | 11160 ft | 308 kts | 332° |
| 2026-05-07 02:14 | 43.54737 | 77.10423 | 11899 ft | 313 kts | 331° |
| 2026-05-07 02:14 | 43.56668 | 77.09057 | 12706 ft | 316 kts | 331° |
| 2026-05-07 02:14 | 43.58634 | 77.07667 | 13473 ft | 319 kts | 331° |
| 2026-05-07 02:15 | 43.60602 | 77.06273 | 14282 ft | 321 kts | 330° |
| 2026-05-07 02:15 | 43.62572 | 77.04875 | 15078 ft | 323 kts | 331° |
| 2026-05-07 02:15 | 43.64576 | 77.03454 | 15880 ft | 325 kts | 331° |
| 2026-05-07 02:15 | 43.66576 | 77.02034 | 16637 ft | 326 kts | 331° |
| 2026-05-07 02:16 | 43.68586 | 77.00605 | 17368 ft | 329 kts | 331° |
| 2026-05-07 02:16 | 43.70618 | 76.99160 | 18128 ft | 330 kts | 332° |
| 2026-05-07 02:16 | 43.72664 | 76.97704 | 18855 ft | 333 kts | 332° |
| 2026-05-07 02:16 | 43.74721 | 76.96240 | 19561 ft | 335 kts | 332° |
| 2026-05-07 02:17 | 43.76794 | 76.94764 | 20254 ft | 338 kts | 332° |
| 2026-05-07 02:17 | 43.78860 | 76.93293 | 20898 ft | 341 kts | 332° |
| 2026-05-07 02:17 | 43.80978 | 76.91783 | 21549 ft | 344 kts | 332° |
| 2026-05-07 02:17 | 43.83114 | 76.90260 | 22193 ft | 347 kts | 333° |
| 2026-05-07 02:18 | 43.85265 | 76.88724 | 22839 ft | 350 kts | 333° |
| 2026-05-07 02:18 | 43.87404 | 76.87196 | 23484 ft | 352 kts | 333° |
| 2026-05-07 02:18 | 43.89594 | 76.85628 | 24126 ft | 354 kts | 333° |
| 2026-05-07 02:18 | 43.91758 | 76.84078 | 24726 ft | 357 kts | 333° |
| 2026-05-07 02:19 | 43.93980 | 76.82485 | 25301 ft | 359 kts | 333° |
| 2026-05-07 02:19 | 43.96231 | 76.80870 | 25868 ft | 362 kts | 333° |
| 2026-05-07 02:19 | 43.98460 | 76.79272 | 26382 ft | 365 kts | 333° |
| 2026-05-07 02:19 | 44.00712 | 76.77653 | 26885 ft | 368 kts | 334° |
| 2026-05-07 02:20 | 44.02990 | 76.76015 | 27390 ft | 371 kts | 334° |
| 2026-05-07 02:20 | 44.05287 | 76.74363 | 27871 ft | 373 kts | 334° |
| 2026-05-07 02:20 | 44.07592 | 76.72703 | 28305 ft | 377 kts | 334° |
| 2026-05-07 02:20 | 44.09917 | 76.71025 | 28744 ft | 379 kts | 334° |
| 2026-05-07 02:21 | 44.12271 | 76.69333 | 29189 ft | 381 kts | 334° |
| 2026-05-07 02:21 | 44.14655 | 76.67619 | 29610 ft | 384 kts | 334° |
| 2026-05-07 02:21 | 44.17010 | 76.65923 | 30001 ft | 386 kts | 334° |
| 2026-05-07 02:21 | 44.19421 | 76.64182 | 30402 ft | 388 kts | 334° |
| 2026-05-07 02:22 | 44.21787 | 76.62467 | 30786 ft | 390 kts | 334° |
| 2026-05-07 02:22 | 44.24195 | 76.60719 | 31167 ft | 391 kts | 334° |
| 2026-05-07 02:22 | 44.26618 | 76.58956 | 31547 ft | 392 kts | 333° |
| 2026-05-07 02:22 | 44.29017 | 76.57210 | 31889 ft | 394 kts | 334° |
| 2026-05-07 02:23 | 44.31451 | 76.55440 | 32233 ft | 395 kts | 333° |
| 2026-05-07 02:23 | 44.33913 | 76.53717 | 32555 ft | 396 kts | 336° |
| 2026-05-07 02:23 | 44.36434 | 76.52176 | 32884 ft | 397 kts | 338° |
| 2026-05-07 02:23 | 44.38974 | 76.50694 | 33205 ft | 398 kts | 338° |
| 2026-05-07 02:24 | 44.41544 | 76.49204 | 33618 ft | 397 kts | 338° |
| 2026-05-07 02:24 | 44.44051 | 76.47747 | 34043 ft | 395 kts | 338° |
| 2026-05-07 02:24 | 44.46590 | 76.46268 | 34395 ft | 393 kts | 337° |
| 2026-05-07 02:24 | 44.49122 | 76.44788 | 34665 ft | 394 kts | 337° |
| 2026-05-07 02:25 | 44.51626 | 76.43322 | 34906 ft | 395 kts | 337° |
| 2026-05-07 02:25 | 44.54177 | 76.41829 | 35121 ft | 396 kts | 337° |
| 2026-05-07 02:25 | 44.56712 | 76.40340 | 35339 ft | 397 kts | 337° |
| 2026-05-07 02:25 | 44.59247 | 76.38851 | 35556 ft | 398 kts | 337° |
| 2026-05-07 02:26 | 44.61814 | 76.37341 | 35766 ft | 399 kts | 337° |
| 2026-05-07 02:26 | 44.64345 | 76.35851 | 35956 ft | 400 kts | 337° |
| 2026-05-07 02:26 | 44.69514 | 76.32790 | 36051 ft | 403 kts | 336° |
| 2026-05-07 02:27 | 44.74640 | 76.29739 | 36055 ft | 403 kts | 336° |
| 2026-05-07 02:27 | 44.79804 | 76.26672 | 36052 ft | 403 kts | 336° |
| 2026-05-07 02:28 | 44.84971 | 76.23605 | 36051 ft | 404 kts | 336° |
| 2026-05-07 02:28 | 44.90125 | 76.20541 | 36050 ft | 404 kts | 336° |
| 2026-05-07 02:29 | 44.95295 | 76.17465 | 36049 ft | 404 kts | 336° |
| 2026-05-07 02:29 | 45.00465 | 76.14381 | 36048 ft | 404 kts | 336° |
| 2026-05-07 02:30 | 45.06495 | 76.10774 | 36046 ft | 405 kts | 336° |
| 2026-05-07 02:30 | 45.10818 | 76.08184 | 36049 ft | 406 kts | 336° |
| 2026-05-07 02:31 | 45.15996 | 76.05096 | 36047 ft | 406 kts | 335° |
| 2026-05-07 02:31 | 45.21199 | 76.01978 | 36049 ft | 407 kts | 335° |
| 2026-05-07 02:32 | 45.26393 | 75.98852 | 36049 ft | 408 kts | 335° |
| 2026-05-07 02:32 | 45.31634 | 75.95689 | 36049 ft | 408 kts | 335° |
| 2026-05-07 02:33 | 45.36829 | 75.92548 | 36052 ft | 409 kts | 335° |
| 2026-05-07 02:33 | 45.42064 | 75.89375 | 36052 ft | 409 kts | 335° |
| 2026-05-07 02:34 | 45.47272 | 75.86211 | 36052 ft | 410 kts | 335° |
| 2026-05-07 02:34 | 45.52511 | 75.83022 | 36053 ft | 410 kts | 335° |
| 2026-05-07 02:35 | 45.57766 | 75.79816 | 36054 ft | 411 kts | 335° |
| 2026-05-07 02:35 | 45.62989 | 75.76620 | 36056 ft | 411 kts | 335° |
| 2026-05-07 02:36 | 45.68253 | 75.73389 | 36051 ft | 412 kts | 335° |
| 2026-05-07 02:36 | 45.73497 | 75.70175 | 36055 ft | 413 kts | 335° |
| 2026-05-07 02:37 | 45.78775 | 75.66947 | 36055 ft | 413 kts | 335° |
| 2026-05-07 02:37 | 45.84022 | 75.63724 | 36048 ft | 413 kts | 335° |
| 2026-05-07 02:38 | 45.89292 | 75.60475 | 36046 ft | 414 kts | 335° |
| 2026-05-07 02:38 | 45.94562 | 75.57217 | 36045 ft | 414 kts | 335° |
| 2026-05-07 02:39 | 45.99818 | 75.53959 | 36045 ft | 414 kts | 335° |
| 2026-05-07 02:39 | 46.05101 | 75.50678 | 36050 ft | 415 kts | 335° |
| 2026-05-07 02:40 | 46.10393 | 75.47382 | 36050 ft | 415 kts | 334° |
| 2026-05-07 02:40 | 46.15702 | 75.44083 | 36043 ft | 415 kts | 334° |
| 2026-05-07 02:41 | 46.20973 | 75.40793 | 36045 ft | 416 kts | 334° |
| 2026-05-07 02:41 | 46.26261 | 75.37515 | 36042 ft | 415 kts | 335° |
| 2026-05-07 02:42 | 46.31585 | 75.34222 | 36040 ft | 416 kts | 334° |
| 2026-05-07 02:42 | 46.36851 | 75.30922 | 36039 ft | 416 kts | 333° |
| 2026-05-07 02:43 | 46.42162 | 75.27595 | 36040 ft | 416 kts | 333° |
| 2026-05-07 02:43 | 46.47473 | 75.24264 | 36041 ft | 416 kts | 333° |
| 2026-05-07 02:44 | 46.52759 | 75.20946 | 36038 ft | 416 kts | 333° |
| 2026-05-07 02:44 | 46.58069 | 75.17609 | 36041 ft | 416 kts | 333° |
| 2026-05-07 02:45 | 46.63367 | 75.14269 | 36045 ft | 417 kts | 333° |
| 2026-05-07 02:45 | 46.69556 | 75.10359 | 36045 ft | 417 kts | 333° |
| 2026-05-07 02:46 | 46.73973 | 75.07562 | 36045 ft | 417 kts | 333° |
| 2026-05-07 02:46 | 46.79303 | 75.04177 | 36049 ft | 418 kts | 333° |
| 2026-05-07 02:47 | 46.84618 | 75.00799 | 36051 ft | 419 kts | 333° |
| 2026-05-07 02:47 | 46.89980 | 74.97522 | 36053 ft | 420 kts | 336° |
| 2026-05-07 02:48 | 46.95435 | 74.94524 | 36053 ft | 419 kts | 336° |
| 2026-05-07 02:48 | 47.00896 | 74.91531 | 36055 ft | 419 kts | 336° |
| 2026-05-07 02:49 | 47.06340 | 74.88528 | 36066 ft | 418 kts | 336° |
| 2026-05-07 02:49 | 47.11747 | 74.85540 | 36077 ft | 416 kts | 336° |
| 2026-05-07 02:50 | 47.17119 | 74.82577 | 36079 ft | 415 kts | 336° |
| 2026-05-07 02:50 | 47.22535 | 74.79572 | 36086 ft | 415 kts | 336° |
| 2026-05-07 02:51 | 47.27890 | 74.76588 | 36098 ft | 413 kts | 335° |
| 2026-05-07 02:51 | 47.33228 | 74.73604 | 36100 ft | 413 kts | 335° |
| 2026-05-07 02:52 | 47.38590 | 74.70601 | 36107 ft | 411 kts | 335° |
| 2026-05-07 02:52 | 47.43905 | 74.67615 | 36109 ft | 409 kts | 335° |
| 2026-05-07 02:53 | 47.49195 | 74.64630 | 36112 ft | 409 kts | 335° |
| 2026-05-07 02:53 | 47.54523 | 74.61629 | 36114 ft | 409 kts | 335° |
| 2026-05-07 02:54 | 47.59811 | 74.58685 | 36420 ft | 410 kts | 335° |
| 2026-05-07 02:54 | 47.62463 | 74.57205 | 36034 ft | 408 kts | 335° |
| 2026-05-07 02:54 | 47.65146 | 74.55702 | 36229 ft | 408 kts | 335° |
| 2026-05-07 02:55 | 47.70408 | 74.52747 | 36139 ft | 409 kts | 335° |
| 2026-05-07 02:55 | 47.75742 | 74.49741 | 36121 ft | 410 kts | 335° |
| 2026-05-07 02:56 | 47.81046 | 74.46745 | 36123 ft | 410 kts | 335° |
| 2026-05-07 02:56 | 47.86391 | 74.43720 | 36119 ft | 410 kts | 335° |
| 2026-05-07 02:57 | 47.91696 | 74.40706 | 36121 ft | 410 kts | 335° |
| 2026-05-07 02:57 | 47.96994 | 74.37689 | 36121 ft | 411 kts | 335° |
| 2026-05-07 02:58 | 48.02356 | 74.34630 | 36122 ft | 411 kts | 334° |
| 2026-05-07 02:58 | 48.07663 | 74.31570 | 36123 ft | 411 kts | 334° |
| 2026-05-07 02:59 | 48.12985 | 74.28520 | 36123 ft | 412 kts | 334° |
| 2026-05-07 02:59 | 48.18340 | 74.25504 | 36125 ft | 412 kts | 335° |
| 2026-05-07 03:00 | 48.23707 | 74.22481 | 36133 ft | 412 kts | 334° |
| 2026-05-07 03:00 | 48.29057 | 74.19450 | 35928 ft | 412 kts | 334° |
| 2026-05-07 03:01 | 48.31719 | 74.17937 | 36035 ft | 413 kts | 334° |
| 2026-05-07 03:01 | 48.34267 | 74.16487 | 36080 ft | 413 kts | 334° |
| 2026-05-07 03:01 | 48.39741 | 74.13368 | 36124 ft | 413 kts | 334° |
| 2026-05-07 03:02 | 48.45123 | 74.10290 | 36130 ft | 414 kts | 334° |
| 2026-05-07 03:02 | 48.50494 | 74.07210 | 36135 ft | 415 kts | 334° |